createdAt,value
2019-03-08T00:02:05.079Z,4.43
2019-03-08T00:04:35.668Z,5.33
2019-03-08T00:07:06.249Z,3.57
2019-03-08T00:09:36.644Z,6.53
2019-03-08T00:12:07.233Z,4.13
2019-03-08T00:14:37.710Z,4.27
2019-03-08T00:17:08.309Z,4.17
2019-03-08T00:19:39.490Z,5.67
2019-03-08T00:22:10.706Z,5.77
2019-03-08T00:24:41.272Z,5.53
2019-03-08T00:27:11.632Z,4.60
2019-03-08T00:29:42.109Z,4.83
2019-03-08T00:32:12.743Z,4.87
2019-03-08T00:34:43.240Z,4.57
2019-03-08T00:37:13.792Z,3.57
2019-03-08T00:39:44.193Z,4.47
2019-03-08T00:42:14.623Z,4.13
2019-03-08T00:44:45.110Z,4.63
2019-03-08T00:47:15.709Z,4.13
2019-03-08T00:49:46.159Z,5.00
2019-03-08T00:52:16.644Z,6.37
2019-03-08T00:54:47.353Z,5.53
2019-03-08T00:57:17.979Z,7.67
2019-03-08T00:59:48.403Z,4.93
2019-03-08T01:02:18.945Z,8.20
2019-03-08T01:04:49.972Z,5.87
2019-03-08T01:07:20.533Z,6.07
2019-03-08T01:09:51.179Z,4.73
2019-03-08T01:12:21.788Z,7.07
2019-03-08T01:14:52.391Z,6.33
2019-03-08T01:17:23.118Z,5.60
2019-03-08T01:19:53.704Z,6.97
2019-03-08T01:22:24.226Z,8.57
2019-03-08T01:24:55.173Z,6.20
2019-03-08T01:27:25.659Z,6.83
2019-03-08T01:29:56.463Z,6.70
2019-03-08T01:32:27.029Z,7.77
2019-03-08T01:34:57.833Z,6.00
2019-03-08T01:37:28.442Z,4.80
2019-03-08T01:39:59.063Z,6.90
2019-03-08T01:42:30.099Z,6.53
2019-03-08T01:45:00.683Z,4.73
2019-03-08T01:47:31.267Z,3.10
2019-03-08T01:50:01.956Z,4.67
2019-03-08T01:52:32.833Z,6.77
2019-03-08T01:55:03.832Z,4.27
2019-03-08T01:57:34.193Z,3.63
2019-03-08T02:00:05.521Z,3.23
2019-03-08T02:02:36.459Z,2.90
2019-03-08T02:05:07.637Z,4.27
2019-03-08T02:07:38.379Z,4.27
2019-03-08T02:10:10.579Z,5.27
2019-03-08T02:12:42.099Z,5.30
2019-03-08T02:15:14.700Z,3.70
2019-03-08T02:17:45.263Z,3.70
2019-03-08T02:20:20.374Z,2.70
2019-03-08T02:22:50.943Z,3.30
2019-03-08T02:25:21.839Z,3.97
2019-03-08T02:27:52.445Z,2.47
2019-03-08T02:30:23.066Z,5.20
2019-03-08T02:32:53.521Z,4.20
2019-03-08T02:35:24.063Z,3.30
2019-03-08T02:37:54.789Z,3.10
2019-03-08T02:40:36.736Z,6.63
2019-03-08T02:43:16.403Z,4.77
2019-03-08T02:45:47.102Z,5.50
2019-03-08T02:48:17.659Z,4.40
2019-03-08T02:50:48.062Z,6.37
2019-03-08T02:53:18.821Z,4.33
2019-03-08T02:55:51.293Z,6.13
2019-03-08T02:58:21.838Z,4.17
2019-03-08T03:00:52.415Z,2.10
2019-03-08T03:03:22.978Z,7.43
2019-03-08T03:05:54.443Z,5.33
2019-03-08T03:08:24.995Z,5.03
2019-03-08T03:10:55.503Z,4.30
2019-03-08T03:13:26.059Z,5.23
2019-03-08T03:15:56.623Z,5.47
2019-03-08T03:18:27.085Z,4.50
2019-03-08T03:20:57.610Z,4.57
2019-03-08T03:23:27.998Z,4.47
2019-03-08T03:25:58.394Z,5.43
2019-03-08T03:28:28.928Z,5.47
2019-03-08T03:30:59.674Z,4.43
2019-03-08T03:33:30.098Z,4.30
2019-03-08T03:36:00.593Z,6.23
2019-03-08T03:38:33.103Z,4.63
2019-03-08T03:41:03.706Z,7.27
2019-03-08T03:43:34.627Z,5.23
2019-03-08T03:46:05.183Z,6.23
2019-03-08T03:48:35.607Z,7.30
2019-03-08T03:51:06.146Z,5.53
2019-03-08T03:53:36.636Z,3.53
2019-03-08T03:56:07.577Z,3.70
2019-03-08T03:58:38.066Z,4.00
2019-03-08T04:01:27.593Z,4.97
2019-03-08T04:03:58.053Z,4.23
2019-03-08T04:06:28.642Z,3.30
2019-03-08T04:08:59.047Z,2.90
2019-03-08T04:11:29.600Z,5.20
2019-03-08T04:14:00.007Z,2.87
2019-03-08T04:16:30.569Z,5.43
2019-03-08T04:19:01.092Z,5.93
2019-03-08T04:21:31.567Z,2.60
2019-03-08T04:24:02.317Z,2.57
2019-03-08T04:26:33.018Z,4.20
2019-03-08T04:29:03.912Z,5.07
2019-03-08T04:31:34.899Z,3.77
2019-03-08T04:34:05.467Z,4.47
2019-03-08T04:36:36.053Z,5.53
2019-03-08T04:39:09.823Z,3.47
2019-03-08T04:41:40.307Z,4.70
2019-03-08T04:44:10.788Z,6.07
2019-03-08T04:46:41.179Z,4.43
2019-03-08T04:49:11.599Z,3.70
2019-03-08T04:51:42.162Z,4.07
2019-03-08T04:54:12.638Z,5.53
2019-03-08T04:56:43.363Z,3.80
2019-03-08T04:59:14.469Z,3.90
2019-03-08T05:01:45.265Z,4.60
2019-03-08T05:04:16.121Z,3.70
2019-03-08T05:06:47.032Z,6.10
2019-03-08T05:09:17.864Z,5.23
2019-03-08T05:11:49.255Z,6.50
2019-03-08T05:14:20.191Z,4.37
2019-03-08T05:16:50.870Z,4.87
2019-03-08T05:19:21.567Z,6.00
2019-03-08T05:21:52.468Z,3.90
2019-03-08T05:24:23.003Z,6.03
2019-03-08T05:26:53.735Z,5.30
2019-03-08T05:29:24.482Z,3.97
2019-03-08T05:31:55.031Z,5.10
2019-03-08T05:34:25.939Z,9.17
2019-03-08T05:36:56.537Z,10.63
2019-03-08T05:39:27.157Z,9.70
2019-03-08T05:41:57.858Z,13.77
2019-03-08T05:44:28.437Z,10.83
2019-03-08T05:46:59.174Z,11.23
2019-03-08T05:49:29.817Z,8.43
2019-03-08T05:52:00.434Z,8.13
2019-03-08T05:54:31.204Z,19.17
2019-03-08T05:57:01.812Z,7.77
2019-03-08T05:59:32.480Z,15.63
2019-03-08T06:02:03.210Z,7.97
2019-03-08T06:04:33.633Z,8.90
2019-03-08T06:07:04.406Z,12.23
2019-03-08T06:09:35.103Z,16.50
2019-03-08T06:12:05.850Z,12.17
2019-03-08T06:14:36.337Z,13.67
2019-03-08T06:17:06.927Z,8.40
2019-03-08T06:19:37.561Z,4.57
2019-03-08T06:22:07.988Z,4.27
2019-03-08T06:24:38.459Z,5.03
2019-03-08T06:27:09.445Z,6.80
2019-03-08T06:29:40.030Z,5.47
2019-03-08T06:32:10.617Z,6.27
2019-03-08T06:34:41.273Z,6.40
2019-03-08T06:37:11.722Z,5.20
2019-03-08T06:39:42.312Z,6.53
2019-03-08T06:42:12.826Z,2.90
2019-03-08T06:44:43.157Z,4.93
2019-03-08T06:47:13.591Z,6.10
2019-03-08T06:49:44.229Z,5.60
2019-03-08T06:52:14.793Z,4.90
2019-03-08T06:54:45.480Z,4.07
2019-03-08T06:57:16.058Z,5.30
2019-03-08T07:00:10.068Z,7.07
2019-03-08T07:02:40.673Z,4.43
2019-03-08T07:05:11.264Z,4.07
2019-03-08T07:07:41.936Z,3.77
2019-03-08T07:10:12.853Z,4.90
2019-03-08T07:12:43.368Z,5.47
2019-03-08T07:15:14.070Z,5.03
2019-03-08T07:17:44.894Z,3.93
2019-03-08T07:20:34.467Z,3.70
2019-03-08T07:23:27.831Z,3.90
2019-03-08T07:26:07.157Z,6.50
2019-03-08T07:28:57.456Z,2.53
2019-03-08T07:31:39.657Z,4.87
2019-03-08T07:34:16.168Z,5.83
2019-03-08T07:37:05.533Z,5.03
2019-03-08T07:39:55.258Z,5.53
2019-03-08T07:42:45.170Z,8.10
2019-03-08T07:45:30.835Z,2.50
2019-03-08T07:48:17.177Z,3.33
2019-03-08T07:51:06.900Z,7.30
2019-03-08T07:53:47.308Z,2.93
2019-03-08T07:56:36.618Z,2.90
2019-03-08T07:59:25.977Z,2.53
2019-03-08T08:02:02.791Z,3.50
2019-03-08T08:04:41.024Z,4.33
2019-03-08T08:07:30.606Z,5.03
2019-03-08T08:10:19.938Z,1.90
2019-03-08T08:13:09.493Z,2.13
2019-03-08T08:15:54.664Z,9.50
2019-03-08T08:18:38.543Z,2.50
2019-03-08T08:21:27.983Z,4.33
2019-03-08T08:24:05.883Z,4.43
2019-03-08T08:26:44.898Z,4.17
2019-03-08T08:29:35.188Z,3.50
2019-03-08T08:32:25.702Z,5.47
2019-03-08T08:35:09.453Z,1.77
2019-03-08T08:37:51.337Z,6.77
2019-03-08T08:40:41.229Z,4.87
2019-03-08T08:43:30.572Z,5.83
2019-03-08T08:46:09.181Z,5.47
2019-03-08T08:48:58.743Z,3.63
2019-03-08T08:51:48.168Z,5.53
2019-03-08T08:54:28.621Z,2.40
2019-03-08T08:57:08.147Z,4.63
2019-03-08T08:59:47.208Z,3.17
2019-03-08T09:02:31.077Z,3.03
2019-03-08T09:05:06.817Z,3.10
2019-03-08T09:07:45.529Z,2.20
2019-03-08T09:10:26.568Z,3.07
2019-03-08T09:13:02.357Z,4.17
2019-03-08T09:15:40.440Z,6.63
2019-03-08T09:18:17.833Z,2.10
2019-03-08T09:20:57.977Z,3.80
2019-03-08T09:23:34.597Z,3.90
2019-03-08T09:26:24.021Z,6.07
2019-03-08T09:29:04.606Z,5.50
2019-03-08T09:31:53.991Z,5.37
2019-03-08T09:34:43.327Z,2.50
2019-03-08T09:37:32.731Z,4.97
2019-03-08T09:40:22.147Z,3.97
2019-03-08T09:43:01.869Z,4.03
2019-03-08T09:45:41.459Z,3.72
2019-03-08T09:48:30.894Z,4.55
2019-03-08T09:51:11.723Z,3.33
2019-03-08T09:53:47.312Z,3.23
2019-03-08T09:56:23.544Z,3.43
2019-03-08T09:59:12.886Z,1.40
2019-03-08T10:01:53.118Z,4.37
2019-03-08T10:04:42.778Z,3.03
2019-03-08T10:07:32.252Z,2.97
2019-03-08T10:10:21.698Z,4.53
2019-03-08T10:13:11.124Z,3.63
2019-03-08T10:15:46.217Z,4.43
2019-03-08T10:18:35.973Z,1.70
2019-03-08T10:21:19.267Z,2.93
2019-03-08T10:24:08.950Z,4.83
2019-03-08T10:26:46.930Z,1.93
2019-03-08T10:29:27.044Z,3.13
2019-03-08T10:32:16.134Z,3.57
2019-03-08T10:35:06.133Z,1.73
2019-03-08T10:37:47.661Z,3.53
2019-03-08T10:40:25.527Z,3.77
2019-03-08T10:42:59.768Z,3.03
2019-03-08T10:45:48.256Z,5.63
2019-03-08T10:48:26.958Z,2.57
2019-03-08T10:51:16.494Z,4.37
2019-03-08T10:54:06.011Z,2.93
2019-03-08T10:56:55.419Z,3.30
2019-03-08T10:59:31.487Z,4.60
2019-03-08T11:02:21.157Z,3.33
2019-03-08T11:05:02.627Z,2.87
2019-03-08T11:07:51.792Z,1.63
2019-03-08T11:10:37.022Z,2.03
2019-03-08T11:13:24.879Z,5.60
2019-03-08T11:16:14.336Z,1.93
2019-03-08T11:19:08.814Z,2.00
2019-03-08T11:21:55.275Z,6.77
2019-03-08T11:24:45.170Z,1.60
2019-03-08T11:27:28.396Z,5.13
2019-03-08T11:30:11.003Z,3.53
2019-03-08T11:32:53.888Z,4.90
2019-03-08T11:35:43.552Z,3.57
2019-03-08T11:38:32.872Z,1.87
2019-03-08T11:41:10.018Z,1.90
2019-03-08T11:43:56.452Z,3.67
2019-03-08T11:46:36.521Z,2.33
2019-03-08T11:49:23.851Z,5.77
2019-03-08T11:52:13.298Z,2.50
2019-03-08T11:55:03.835Z,3.67
2019-03-08T11:57:53.994Z,3.17
2019-03-08T12:00:43.371Z,2.40
2019-03-08T12:03:32.777Z,3.17
2019-03-08T12:06:14.348Z,4.70
2019-03-08T12:09:03.747Z,3.83
2019-03-08T12:11:53.198Z,3.90
2019-03-08T12:14:42.631Z,2.47
2019-03-08T12:17:29.189Z,1.60
2019-03-08T12:20:08.881Z,2.03
2019-03-08T12:22:58.704Z,3.00
2019-03-08T12:25:48.336Z,1.80
2019-03-08T12:28:37.146Z,2.80
2019-03-08T12:31:16.413Z,3.80
2019-03-08T12:34:00.117Z,3.30
2019-03-08T12:36:49.405Z,2.67
2019-03-08T12:39:32.866Z,3.37
2019-03-08T12:42:22.572Z,2.73
2019-03-08T12:45:12.011Z,4.27
2019-03-08T12:48:01.806Z,3.97
2019-03-08T12:50:51.267Z,3.57
2019-03-08T12:53:41.022Z,3.03
2019-03-08T12:56:25.954Z,1.47
2019-03-08T12:59:15.428Z,4.70
2019-03-08T13:02:04.763Z,2.43
2019-03-08T13:04:54.234Z,10.70
2019-03-08T13:07:38.018Z,2.50
2019-03-08T13:10:11.056Z,1.53
2019-03-08T13:12:41.580Z,11.63
2019-03-08T13:15:14.224Z,2.63
2019-03-08T13:17:45.051Z,9.63
2019-03-08T13:20:17.748Z,3.33
2019-03-08T13:22:48.449Z,2.67
2019-03-08T13:25:19.448Z,2.07
2019-03-08T13:27:50.104Z,2.03
2019-03-08T13:30:22.499Z,5.27
2019-03-08T13:32:53.279Z,2.47
2019-03-08T13:35:23.863Z,5.13
2019-03-08T13:37:54.579Z,2.67
2019-03-08T13:40:25.486Z,4.90
2019-03-08T13:42:56.178Z,3.00
2019-03-08T13:45:26.983Z,4.57
2019-03-08T13:47:57.613Z,1.50
2019-03-08T13:50:28.317Z,5.13
2019-03-08T13:52:58.865Z,2.57
2019-03-08T13:55:29.364Z,2.87
2019-03-08T13:57:59.943Z,1.87
2019-03-08T14:00:30.688Z,1.60
2019-03-08T14:03:01.403Z,3.47
2019-03-08T14:05:32.084Z,2.73
2019-03-08T14:08:02.682Z,3.27
2019-03-08T14:10:33.120Z,1.83
2019-03-08T14:13:03.754Z,2.60
2019-03-08T14:15:34.238Z,1.23
2019-03-08T14:18:04.901Z,2.03
2019-03-08T14:20:35.652Z,2.50
2019-03-08T14:23:06.383Z,2.50
2019-03-08T14:25:36.984Z,3.20
2019-03-08T14:28:07.782Z,3.87
2019-03-08T14:30:45.283Z,2.07
2019-03-08T14:33:15.951Z,3.03
2019-03-08T14:35:46.553Z,1.83
2019-03-08T14:38:17.033Z,4.13
2019-03-08T14:41:06.732Z,1.90
2019-03-08T14:43:48.974Z,0.80
2019-03-08T14:46:24.708Z,2.33
2019-03-08T14:48:55.782Z,2.27
2019-03-08T14:51:26.294Z,3.57
2019-03-08T14:53:57.000Z,3.33
2019-03-08T14:56:31.721Z,2.33
2019-03-08T14:59:00.223Z,2.80
2019-03-08T15:01:30.903Z,3.53
2019-03-08T15:04:01.582Z,5.13
2019-03-08T15:06:51.317Z,2.47
2019-03-08T15:09:22.128Z,4.27
2019-03-08T15:11:55.955Z,3.83
2019-03-08T15:14:25.439Z,3.17
2019-03-08T15:16:55.880Z,10.50
2019-03-08T15:19:26.748Z,4.33
2019-03-08T15:21:57.286Z,4.90
2019-03-08T15:24:27.793Z,3.73
2019-03-08T15:26:58.343Z,3.20
2019-03-08T15:29:28.824Z,3.87
2019-03-08T15:31:59.714Z,5.40
2019-03-08T15:34:30.313Z,2.33
2019-03-08T15:37:00.950Z,2.37
2019-03-08T15:42:11.136Z,16.67
2019-03-08T15:44:41.798Z,3.63
2019-03-08T15:47:23.029Z,4.90
2019-03-08T15:49:44.672Z,8.13
2019-03-08T15:52:15.379Z,5.10
2019-03-08T15:54:45.964Z,6.77
2019-03-08T15:57:16.593Z,2.80
2019-03-08T15:59:47.102Z,5.23
2019-03-08T16:02:17.868Z,1.20
2019-03-08T16:04:50.131Z,4.73
2019-03-08T16:07:22.976Z,4.87
2019-03-08T16:09:53.539Z,4.67
2019-03-08T16:12:24.199Z,5.37
2019-03-08T16:14:55.125Z,5.60
2019-03-08T16:17:25.723Z,5.50
2019-03-08T16:19:58.803Z,4.23
2019-03-08T16:22:30.018Z,4.00
2019-03-08T16:25:00.945Z,4.90
2019-03-08T16:27:32.062Z,3.33
2019-03-08T16:30:09.630Z,6.40
2019-03-08T16:32:54.065Z,6.33
2019-03-08T16:35:25.531Z,4.60
2019-03-08T16:38:14.756Z,3.30
2019-03-08T16:41:02.244Z,12.67
2019-03-08T16:43:52.280Z,17.57
2019-03-08T16:46:34.350Z,6.50
2019-03-08T16:49:14.768Z,13.80
2019-03-08T16:52:04.578Z,21.73
2019-03-08T16:54:53.639Z,11.17
2019-03-08T16:57:42.086Z,12.77
2019-03-08T17:00:31.488Z,11.63
2019-03-08T17:03:15.855Z,5.63
2019-03-08T17:06:01.646Z,3.93
2019-03-08T17:08:51.091Z,5.10
2019-03-08T17:11:31.273Z,4.43
2019-03-08T17:14:13.676Z,7.23
2019-03-08T17:17:02.998Z,6.17
2019-03-08T17:19:49.447Z,5.80
2019-03-08T17:22:31.464Z,5.20
2019-03-08T17:25:11.645Z,4.67
2019-03-08T17:28:02.200Z,2.33
2019-03-08T17:30:51.638Z,2.60
2019-03-08T17:33:28.917Z,2.47
2019-03-08T17:36:09.298Z,3.23
2019-03-08T17:38:58.692Z,3.40
2019-03-08T17:41:55.662Z,5.70
2019-03-08T17:44:51.626Z,4.43
2019-03-08T17:47:44.648Z,6.17
2019-03-08T17:50:35.167Z,5.67
2019-03-08T17:53:24.593Z,5.10
2019-03-08T17:56:10.706Z,5.63
2019-03-08T17:59:00.571Z,7.70
2019-03-08T18:01:44.879Z,6.60
2019-03-08T18:04:36.354Z,5.80
2019-03-08T18:07:16.378Z,6.67
2019-03-08T18:10:05.533Z,6.90
2019-03-08T18:12:55.121Z,7.53
2019-03-08T18:15:31.893Z,6.07
2019-03-08T18:18:25.356Z,7.73
2019-03-08T18:21:08.258Z,8.63
2019-03-08T18:24:00.908Z,10.03
2019-03-08T18:26:53.897Z,14.17
2019-03-08T18:29:49.648Z,20.23
2019-03-08T18:32:39.108Z,14.63
2019-03-08T18:35:28.715Z,19.10
2019-03-08T18:38:21.496Z,9.73
2019-03-08T18:41:07.572Z,14.57
2019-03-08T18:43:59.393Z,17.57
2019-03-08T18:46:51.576Z,12.00
2019-03-08T18:49:39.513Z,20.43
2019-03-08T18:52:31.773Z,14.10
2019-03-08T18:55:13.400Z,13.33
2019-03-08T18:58:04.099Z,13.87
2019-03-08T19:01:07.413Z,8.30
2019-03-08T19:03:53.778Z,10.10
2019-03-08T19:06:34.117Z,9.37
2019-03-08T19:09:23.146Z,8.47
2019-03-08T19:12:08.723Z,7.50
2019-03-08T19:14:51.668Z,10.73
2019-03-08T19:17:38.441Z,8.13
2019-03-08T19:20:28.609Z,9.27
2019-03-08T19:23:08.649Z,8.00
2019-03-08T19:25:46.550Z,10.87
2019-03-08T19:28:36.048Z,10.67
2019-03-08T19:31:14.249Z,14.10
2019-03-08T19:33:57.033Z,9.53
2019-03-08T19:36:50.803Z,11.60
2019-03-08T19:39:45.658Z,12.57
2019-03-08T19:42:23.588Z,10.47
2019-03-08T19:45:14.788Z,12.53
2019-03-08T19:47:58.842Z,11.13
2019-03-08T19:50:49.809Z,10.57
2019-03-08T19:53:53.111Z,12.77
2019-03-08T19:56:47.599Z,11.43
2019-03-08T19:59:40.063Z,11.27
2019-03-08T20:02:18.001Z,13.53
2019-03-08T20:05:03.989Z,12.47
2019-03-08T20:07:53.516Z,10.70
2019-03-08T20:10:45.823Z,9.87
2019-03-08T20:13:36.461Z,13.00
2019-03-08T20:16:26.463Z,15.20
2019-03-08T20:19:09.900Z,14.90
2019-03-08T20:21:50.683Z,12.47
2019-03-08T20:24:31.088Z,14.73
2019-03-08T20:27:26.388Z,19.43
2019-03-08T20:30:16.154Z,11.57
2019-03-08T20:33:07.338Z,17.17
2019-03-08T20:36:01.091Z,14.87
2019-03-08T20:38:50.705Z,11.27
2019-03-08T20:41:40.142Z,13.37
2019-03-08T20:44:24.313Z,15.20
2019-03-08T20:46:59.953Z,26.00
2019-03-08T20:49:31.642Z,23.17
2019-03-08T20:52:12.585Z,29.47
2019-03-08T20:54:43.263Z,24.90
2019-03-08T20:57:14.278Z,27.07
2019-03-08T20:59:47.723Z,25.13
2019-03-08T21:02:18.342Z,30.40
2019-03-08T21:04:50.280Z,25.47
2019-03-08T21:07:26.271Z,22.50
2019-03-08T21:10:00.303Z,27.20
2019-03-08T21:12:38.284Z,28.27
2019-03-08T21:15:11.623Z,26.40
2019-03-08T21:18:04.932Z,21.70
2019-03-08T21:20:39.158Z,21.23
2019-03-08T21:23:17.931Z,16.80
2019-03-08T21:25:57.009Z,17.40
2019-03-08T21:28:27.793Z,16.83
2019-03-08T21:31:01.688Z,17.83
2019-03-08T21:33:35.367Z,18.70
2019-03-08T21:36:06.134Z,17.03
2019-03-08T21:38:37.856Z,17.37
2019-03-08T21:41:11.298Z,16.10
2019-03-08T21:43:41.983Z,14.37
2019-03-08T21:46:12.558Z,19.03
2019-03-08T21:48:43.094Z,20.20
2019-03-08T21:51:15.046Z,24.97
2019-03-08T21:53:45.417Z,28.17
2019-03-08T21:56:16.107Z,21.80
2019-03-08T21:58:46.721Z,24.47
2019-03-08T22:01:17.107Z,24.07
2019-03-08T22:03:53.568Z,23.30
2019-03-08T22:06:24.182Z,19.63
2019-03-08T22:09:03.589Z,20.37
2019-03-08T22:11:37.248Z,26.90
2019-03-08T22:14:08.422Z,26.03
2019-03-08T22:16:39.040Z,23.43
2019-03-08T22:19:10.010Z,26.73
2019-03-08T22:21:40.323Z,28.70
2019-03-08T22:24:13.641Z,24.93
2019-03-08T22:26:43.698Z,25.97
2019-03-08T22:29:14.186Z,27.43
2019-03-08T22:31:44.747Z,27.00
2019-03-08T22:34:15.309Z,31.80
2019-03-08T22:36:45.889Z,36.37
2019-03-08T22:39:16.741Z,39.87
2019-03-08T22:41:47.247Z,39.97
2019-03-08T22:44:19.363Z,42.80
2019-03-08T22:46:49.833Z,30.17
2019-03-08T22:49:20.214Z,32.53
2019-03-08T22:51:50.723Z,28.83
2019-03-08T22:54:21.145Z,40.47
2019-03-08T22:56:51.630Z,40.43
2019-03-08T22:59:22.037Z,39.27
2019-03-08T23:01:54.566Z,31.73
2019-03-08T23:04:25.033Z,32.27
2019-03-08T23:06:55.771Z,30.83
2019-03-08T23:09:26.440Z,35.27
2019-03-08T23:11:57.569Z,35.00
2019-03-08T23:14:28.063Z,34.70
2019-03-08T23:16:58.793Z,47.27
2019-03-08T23:19:29.202Z,42.10
2019-03-08T23:22:00.145Z,47.20
2019-03-08T23:24:30.679Z,38.70
2019-03-08T23:27:20.031Z,30.80
2019-03-08T23:29:54.116Z,27.33
2019-03-08T23:32:27.828Z,27.93
2019-03-08T23:34:58.090Z,27.40
2019-03-08T23:37:28.516Z,28.23
2019-03-08T23:39:58.965Z,26.30
2019-03-08T23:42:29.749Z,27.30
2019-03-08T23:45:00.363Z,27.10
2019-03-08T23:47:30.888Z,27.00
2019-03-08T23:50:01.465Z,37.83
2019-03-08T23:52:31.974Z,44.63
2019-03-08T23:55:02.649Z,39.47
2019-03-08T23:57:32.993Z,37.93
